sensor_id;sensor_type;location;lat;lon;timestamp;temperature;humidity
39677;DHT22;27789;50.840;4.386;2022-12-20T00:00:26;13.00;99.90
39677;DHT22;27789;50.840;4.386;2022-12-20T00:02:52;13.00;99.90
39677;DHT22;27789;50.840;4.386;2022-12-20T00:05:17;13.00;99.90
39677;DHT22;27789;50.840;4.386;2022-12-20T00:07:43;13.00;99.90
39677;DHT22;27789;50.840;4.386;2022-12-20T00:10:09;13.00;99.90
39677;DHT22;27789;50.840;4.386;2022-12-20T00:12:34;13.00;99.90
39677;DHT22;27789;50.840;4.386;2022-12-20T00:15:00;13.00;99.90
39677;DHT22;27789;50.840;4.386;2022-12-20T00:17:25;13.00;99.90
39677;DHT22;27789;50.840;4.386;2022-12-20T00:19:51;13.00;99.90
39677;DHT22;27789;50.840;4.386;2022-12-20T00:22:16;13.00;99.90
39677;DHT22;27789;50.840;4.386;2022-12-20T00:24:42;13.00;99.90
39677;DHT22;27789;50.840;4.386;2022-12-20T00:27:08;13.00;99.90
39677;DHT22;27789;50.840;4.386;2022-12-20T00:29:34;12.90;99.90
39677;DHT22;27789;50.840;4.386;2022-12-20T00:31:59;12.90;99.90
39677;DHT22;27789;50.840;4.386;2022-12-20T00:34:25;12.90;99.90
39677;DHT22;27789;50.840;4.386;2022-12-20T00:36:50;12.90;99.90
39677;DHT22;27789;50.840;4.386;2022-12-20T00:39:16;12.90;99.90
39677;DHT22;27789;50.840;4.386;2022-12-20T00:41:42;12.90;99.90
39677;DHT22;27789;50.840;4.386;2022-12-20T00:44:07;12.80;99.90
39677;DHT22;27789;50.840;4.386;2022-12-20T00:46:33;12.80;99.90
39677;DHT22;27789;50.840;4.386;2022-12-20T00:49:00;12.80;99.90
39677;DHT22;27789;50.840;4.386;2022-12-20T00:51:27;12.80;99.90
39677;DHT22;27789;50.840;4.386;2022-12-20T00:53:53;12.90;99.90
39677;DHT22;27789;50.840;4.386;2022-12-20T00:56:19;12.80;99.90
39677;DHT22;27789;50.840;4.386;2022-12-20T00:58:46;12.80;99.90
39677;DHT22;27789;50.840;4.386;2022-12-20T01:01:23;12.80;99.90
39677;DHT22;27789;50.840;4.386;2022-12-20T01:03:50;12.80;99.90
39677;DHT22;27789;50.840;4.386;2022-12-20T01:06:16;12.70;99.90
39677;DHT22;27789;50.840;4.386;2022-12-20T01:08:42;12.80;99.90
39677;DHT22;27789;50.840;4.386;2022-12-20T01:11:11;12.70;99.90
39677;DHT22;27789;50.840;4.386;2022-12-20T01:13:39;12.70;99.90
39677;DHT22;27789;50.840;4.386;2022-12-20T01:18:48;12.70;99.90
39677;DHT22;27789;50.840;4.386;2022-12-20T01:21:15;12.70;99.90
39677;DHT22;27789;50.840;4.386;2022-12-20T01:23:41;12.60;99.90
39677;DHT22;27789;50.840;4.386;2022-12-20T01:26:11;12.60;99.90
39677;DHT22;27789;50.840;4.386;2022-12-20T01:28:39;12.60;99.90
39677;DHT22;27789;50.840;4.386;2022-12-20T01:31:07;12.60;99.90
39677;DHT22;27789;50.840;4.386;2022-12-20T01:33:34;12.60;99.90
39677;DHT22;27789;50.840;4.386;2022-12-20T01:36:06;12.50;99.90
39677;DHT22;27789;50.840;4.386;2022-12-20T01:38:32;12.50;99.90
39677;DHT22;27789;50.840;4.386;2022-12-20T01:40:58;12.40;99.90
39677;DHT22;27789;50.840;4.386;2022-12-20T01:43:25;12.40;99.90
39677;DHT22;27789;50.840;4.386;2022-12-20T01:46:08;12.30;99.90
39677;DHT22;27789;50.840;4.386;2022-12-20T01:48:34;12.40;99.90
39677;DHT22;27789;50.840;4.386;2022-12-20T01:51:00;12.30;99.90
39677;DHT22;27789;50.840;4.386;2022-12-20T01:53:26;12.30;99.90
39677;DHT22;27789;50.840;4.386;2022-12-20T01:55:52;12.30;99.90
39677;DHT22;27789;50.840;4.386;2022-12-20T01:58:19;12.20;99.90
39677;DHT22;27789;50.840;4.386;2022-12-20T02:00:45;12.20;99.90
39677;DHT22;27789;50.840;4.386;2022-12-20T02:03:13;12.20;99.90
39677;DHT22;27789;50.840;4.386;2022-12-20T02:05:41;12.10;99.90
39677;DHT22;27789;50.840;4.386;2022-12-20T02:08:08;12.10;99.90
39677;DHT22;27789;50.840;4.386;2022-12-20T02:15:56;12.10;99.90
39677;DHT22;27789;50.840;4.386;2022-12-20T02:21:16;12.10;99.90
39677;DHT22;27789;50.840;4.386;2022-12-20T02:32:08;12.20;99.90
39677;DHT22;27789;50.840;4.386;2022-12-20T02:34:38;12.20;99.90
39677;DHT22;27789;50.840;4.386;2022-12-20T02:37:04;12.20;99.90
39677;DHT22;27789;50.840;4.386;2022-12-20T02:39:32;12.20;99.90
39677;DHT22;27789;50.840;4.386;2022-12-20T02:42:05;12.30;99.90
39677;DHT22;27789;50.840;4.386;2022-12-20T02:44:33;12.40;99.90
39677;DHT22;27789;50.840;4.386;2022-12-20T02:47:19;12.40;99.90
39677;DHT22;27789;50.840;4.386;2022-12-20T02:49:46;12.40;99.90
39677;DHT22;27789;50.840;4.386;2022-12-20T02:52:13;12.40;99.90
39677;DHT22;27789;50.840;4.386;2022-12-20T02:54:39;12.40;99.90
39677;DHT22;27789;50.840;4.386;2022-12-20T02:57:15;12.40;99.90
39677;DHT22;27789;50.840;4.386;2022-12-20T02:59:54;12.50;99.90
39677;DHT22;27789;50.840;4.386;2022-12-20T03:02:22;12.50;99.90
39677;DHT22;27789;50.840;4.386;2022-12-20T03:04:49;12.50;99.90
39677;DHT22;27789;50.840;4.386;2022-12-20T03:07:15;12.40;99.90
39677;DHT22;27789;50.840;4.386;2022-12-20T03:09:43;12.50;99.90
39677;DHT22;27789;50.840;4.386;2022-12-20T03:12:10;12.50;99.90
39677;DHT22;27789;50.840;4.386;2022-12-20T03:14:39;12.50;99.90
39677;DHT22;27789;50.840;4.386;2022-12-20T03:17:05;12.50;99.90
39677;DHT22;27789;50.840;4.386;2022-12-20T03:19:32;12.50;99.90
39677;DHT22;27789;50.840;4.386;2022-12-20T03:21:57;12.50;99.90
39677;DHT22;27789;50.840;4.386;2022-12-20T03:24:23;12.50;99.90
39677;DHT22;27789;50.840;4.386;2022-12-20T03:26:49;12.60;99.90
39677;DHT22;27789;50.840;4.386;2022-12-20T03:29:15;12.60;99.90
39677;DHT22;27789;50.840;4.386;2022-12-20T03:31:40;12.50;99.90
39677;DHT22;27789;50.840;4.386;2022-12-20T03:34:06;12.50;99.90
39677;DHT22;27789;50.840;4.386;2022-12-20T03:36:32;12.50;99.90
39677;DHT22;27789;50.840;4.386;2022-12-20T03:38:58;12.60;99.90
39677;DHT22;27789;50.840;4.386;2022-12-20T03:41:25;12.60;99.90
39677;DHT22;27789;50.840;4.386;2022-12-20T03:43:51;12.60;99.90
39677;DHT22;27789;50.840;4.386;2022-12-20T03:46:16;12.60;99.90
39677;DHT22;27789;50.840;4.386;2022-12-20T03:48:42;12.60;99.90
39677;DHT22;27789;50.840;4.386;2022-12-20T03:51:08;12.60;99.90
39677;DHT22;27789;50.840;4.386;2022-12-20T03:53:34;12.60;99.90
39677;DHT22;27789;50.840;4.386;2022-12-20T03:55:59;12.50;99.90
39677;DHT22;27789;50.840;4.386;2022-12-20T03:58:25;12.50;99.90
39677;DHT22;27789;50.840;4.386;2022-12-20T04:00:51;12.50;99.90
39677;DHT22;27789;50.840;4.386;2022-12-20T04:03:17;12.50;99.90
39677;DHT22;27789;50.840;4.386;2022-12-20T04:05:42;12.50;99.90
39677;DHT22;27789;50.840;4.386;2022-12-20T04:08:08;12.40;99.90
39677;DHT22;27789;50.840;4.386;2022-12-20T04:10:33;12.40;99.90
39677;DHT22;27789;50.840;4.386;2022-12-20T04:13:22;12.50;99.90
39677;DHT22;27789;50.840;4.386;2022-12-20T04:15:47;12.40;99.90
39677;DHT22;27789;50.840;4.386;2022-12-20T04:18:13;12.40;99.90
39677;DHT22;27789;50.840;4.386;2022-12-20T04:20:39;12.40;99.90
39677;DHT22;27789;50.840;4.386;2022-12-20T04:23:04;12.40;99.90
39677;DHT22;27789;50.840;4.386;2022-12-20T04:25:30;12.40;99.90
39677;DHT22;27789;50.840;4.386;2022-12-20T04:27:55;12.40;99.90
39677;DHT22;27789;50.840;4.386;2022-12-20T04:30:21;12.40;99.90
39677;DHT22;27789;50.840;4.386;2022-12-20T04:32:47;12.40;99.90
39677;DHT22;27789;50.840;4.386;2022-12-20T04:35:12;12.40;99.90
39677;DHT22;27789;50.840;4.386;2022-12-20T04:37:38;12.40;99.90
39677;DHT22;27789;50.840;4.386;2022-12-20T04:40:04;12.40;99.90
39677;DHT22;27789;50.840;4.386;2022-12-20T04:42:30;12.40;99.90
39677;DHT22;27789;50.840;4.386;2022-12-20T04:44:55;12.40;99.90
39677;DHT22;27789;50.840;4.386;2022-12-20T04:47:21;12.40;99.90
39677;DHT22;27789;50.840;4.386;2022-12-20T04:49:46;12.30;99.90
39677;DHT22;27789;50.840;4.386;2022-12-20T04:52:12;12.30;99.90
39677;DHT22;27789;50.840;4.386;2022-12-20T04:54:49;12.30;99.90
39677;DHT22;27789;50.840;4.386;2022-12-20T04:57:14;12.30;99.90
39677;DHT22;27789;50.840;4.386;2022-12-20T04:59:41;12.40;99.90
39677;DHT22;27789;50.840;4.386;2022-12-20T05:02:06;12.40;99.90
39677;DHT22;27789;50.840;4.386;2022-12-20T05:04:32;12.40;99.90
39677;DHT22;27789;50.840;4.386;2022-12-20T05:06:58;12.40;99.90
39677;DHT22;27789;50.840;4.386;2022-12-20T05:09:23;12.40;99.90
39677;DHT22;27789;50.840;4.386;2022-12-20T05:11:49;12.40;99.90
39677;DHT22;27789;50.840;4.386;2022-12-20T05:14:14;12.50;99.90
39677;DHT22;27789;50.840;4.386;2022-12-20T05:16:40;12.40;99.90
39677;DHT22;27789;50.840;4.386;2022-12-20T05:19:06;12.50;99.90
39677;DHT22;27789;50.840;4.386;2022-12-20T05:21:31;12.50;99.90
39677;DHT22;27789;50.840;4.386;2022-12-20T05:24:08;12.50;99.90
39677;DHT22;27789;50.840;4.386;2022-12-20T05:26:45;12.50;99.90
39677;DHT22;27789;50.840;4.386;2022-12-20T05:29:10;12.50;99.90
39677;DHT22;27789;50.840;4.386;2022-12-20T05:31:36;12.40;99.90
39677;DHT22;27789;50.840;4.386;2022-12-20T05:34:02;12.40;99.90
39677;DHT22;27789;50.840;4.386;2022-12-20T05:36:27;12.40;99.90
39677;DHT22;27789;50.840;4.386;2022-12-20T05:38:53;12.40;99.90
39677;DHT22;27789;50.840;4.386;2022-12-20T05:41:19;12.40;99.90
39677;DHT22;27789;50.840;4.386;2022-12-20T05:43:44;12.40;99.90
39677;DHT22;27789;50.840;4.386;2022-12-20T05:46:10;12.40;99.90
39677;DHT22;27789;50.840;4.386;2022-12-20T05:48:35;12.40;99.90
39677;DHT22;27789;50.840;4.386;2022-12-20T05:51:01;12.40;99.90
39677;DHT22;27789;50.840;4.386;2022-12-20T05:53:27;12.40;99.90
39677;DHT22;27789;50.840;4.386;2022-12-20T05:55:53;12.40;99.90
39677;DHT22;27789;50.840;4.386;2022-12-20T05:58:19;12.40;99.90
39677;DHT22;27789;50.840;4.386;2022-12-20T06:00:44;12.40;99.90
39677;DHT22;27789;50.840;4.386;2022-12-20T06:03:12;12.40;99.90
39677;DHT22;27789;50.840;4.386;2022-12-20T06:05:40;12.30;99.90
39677;DHT22;27789;50.840;4.386;2022-12-20T06:08:06;12.40;99.90
39677;DHT22;27789;50.840;4.386;2022-12-20T06:10:33;12.40;99.90
39677;DHT22;27789;50.840;4.386;2022-12-20T06:13:02;12.40;99.90
39677;DHT22;27789;50.840;4.386;2022-12-20T06:15:29;12.50;99.90
39677;DHT22;27789;50.840;4.386;2022-12-20T06:17:54;12.50;99.90
39677;DHT22;27789;50.840;4.386;2022-12-20T06:20:20;12.50;99.90
39677;DHT22;27789;50.840;4.386;2022-12-20T06:22:45;12.50;99.90
39677;DHT22;27789;50.840;4.386;2022-12-20T06:25:11;12.50;99.90
39677;DHT22;27789;50.840;4.386;2022-12-20T06:27:37;12.50;99.90
39677;DHT22;27789;50.840;4.386;2022-12-20T06:30:04;12.50;99.90
39677;DHT22;27789;50.840;4.386;2022-12-20T06:32:30;12.60;99.90
39677;DHT22;27789;50.840;4.386;2022-12-20T06:34:56;12.60;99.90
39677;DHT22;27789;50.840;4.386;2022-12-20T06:37:21;12.60;99.90
39677;DHT22;27789;50.840;4.386;2022-12-20T06:39:47;12.60;99.90
39677;DHT22;27789;50.840;4.386;2022-12-20T06:42:13;12.70;99.90
39677;DHT22;27789;50.840;4.386;2022-12-20T06:44:38;12.70;99.90
39677;DHT22;27789;50.840;4.386;2022-12-20T06:47:04;12.70;99.90
39677;DHT22;27789;50.840;4.386;2022-12-20T06:49:29;12.80;99.90
39677;DHT22;27789;50.840;4.386;2022-12-20T06:51:55;12.90;99.90
39677;DHT22;27789;50.840;4.386;2022-12-20T06:54:21;12.90;99.90
39677;DHT22;27789;50.840;4.386;2022-12-20T06:56:46;13.00;99.90
39677;DHT22;27789;50.840;4.386;2022-12-20T06:59:12;13.00;99.90
39677;DHT22;27789;50.840;4.386;2022-12-20T07:01:38;13.00;99.90
39677;DHT22;27789;50.840;4.386;2022-12-20T07:04:03;13.10;99.90
39677;DHT22;27789;50.840;4.386;2022-12-20T07:06:29;13.10;99.90
39677;DHT22;27789;50.840;4.386;2022-12-20T07:08:55;13.10;99.90
39677;DHT22;27789;50.840;4.386;2022-12-20T07:11:20;13.00;99.90
39677;DHT22;27789;50.840;4.386;2022-12-20T07:13:46;13.00;99.90
39677;DHT22;27789;50.840;4.386;2022-12-20T07:16:12;12.90;99.90
39677;DHT22;27789;50.840;4.386;2022-12-20T07:18:37;12.70;99.90
39677;DHT22;27789;50.840;4.386;2022-12-20T07:21:04;12.50;99.90
39677;DHT22;27789;50.840;4.386;2022-12-20T07:23:31;12.50;99.90
39677;DHT22;27789;50.840;4.386;2022-12-20T07:25:59;12.40;99.90
39677;DHT22;27789;50.840;4.386;2022-12-20T07:28:25;12.40;99.90
39677;DHT22;27789;50.840;4.386;2022-12-20T07:30:52;12.40;99.90
39677;DHT22;27789;50.840;4.386;2022-12-20T07:33:18;12.30;99.90
39677;DHT22;27789;50.840;4.386;2022-12-20T07:35:43;12.30;99.90
39677;DHT22;27789;50.840;4.386;2022-12-20T07:38:11;12.20;99.90
39677;DHT22;27789;50.840;4.386;2022-12-20T07:40:41;12.10;99.90
39677;DHT22;27789;50.840;4.386;2022-12-20T07:43:08;12.00;99.90
39677;DHT22;27789;50.840;4.386;2022-12-20T07:45:34;12.00;99.90
39677;DHT22;27789;50.840;4.386;2022-12-20T07:48:00;11.90;99.90
39677;DHT22;27789;50.840;4.386;2022-12-20T07:50:26;11.90;99.90
39677;DHT22;27789;50.840;4.386;2022-12-20T07:52:53;11.90;99.90
39677;DHT22;27789;50.840;4.386;2022-12-20T07:55:19;11.80;99.90
39677;DHT22;27789;50.840;4.386;2022-12-20T07:57:50;11.80;99.90
39677;DHT22;27789;50.840;4.386;2022-12-20T08:00:17;11.80;99.90
39677;DHT22;27789;50.840;4.386;2022-12-20T08:05:33;11.70;99.90
39677;DHT22;27789;50.840;4.386;2022-12-20T08:08:01;11.70;99.90
39677;DHT22;27789;50.840;4.386;2022-12-20T08:10:27;11.70;99.90
39677;DHT22;27789;50.840;4.386;2022-12-20T08:12:53;11.70;99.90
39677;DHT22;27789;50.840;4.386;2022-12-20T08:15:19;11.70;99.90
39677;DHT22;27789;50.840;4.386;2022-12-20T08:17:47;11.70;99.90
39677;DHT22;27789;50.840;4.386;2022-12-20T08:20:14;11.70;99.90
39677;DHT22;27789;50.840;4.386;2022-12-20T08:22:39;11.70;99.90
39677;DHT22;27789;50.840;4.386;2022-12-20T08:25:05;11.70;99.90
39677;DHT22;27789;50.840;4.386;2022-12-20T08:27:31;11.70;99.90
39677;DHT22;27789;50.840;4.386;2022-12-20T08:29:58;11.70;99.90
39677;DHT22;27789;50.840;4.386;2022-12-20T08:32:24;11.80;99.90
39677;DHT22;27789;50.840;4.386;2022-12-20T08:34:50;11.70;99.90
39677;DHT22;27789;50.840;4.386;2022-12-20T08:37:16;11.80;99.90
39677;DHT22;27789;50.840;4.386;2022-12-20T08:39:42;11.80;99.90
39677;DHT22;27789;50.840;4.386;2022-12-20T08:42:08;11.80;99.90
39677;DHT22;27789;50.840;4.386;2022-12-20T08:44:33;11.80;99.90
39677;DHT22;27789;50.840;4.386;2022-12-20T08:46:59;11.80;99.90
39677;DHT22;27789;50.840;4.386;2022-12-20T08:49:24;11.80;99.90
39677;DHT22;27789;50.840;4.386;2022-12-20T08:51:50;11.90;99.90
39677;DHT22;27789;50.840;4.386;2022-12-20T08:54:15;11.90;99.90
39677;DHT22;27789;50.840;4.386;2022-12-20T08:56:42;11.90;99.90
39677;DHT22;27789;50.840;4.386;2022-12-20T08:59:07;11.90;99.90
39677;DHT22;27789;50.840;4.386;2022-12-20T09:01:33;11.90;99.90
39677;DHT22;27789;50.840;4.386;2022-12-20T09:03:59;12.00;99.90
39677;DHT22;27789;50.840;4.386;2022-12-20T09:06:25;12.00;99.90
39677;DHT22;27789;50.840;4.386;2022-12-20T09:08:51;12.00;99.90
39677;DHT22;27789;50.840;4.386;2022-12-20T09:11:20;12.00;99.90
39677;DHT22;27789;50.840;4.386;2022-12-20T09:13:47;12.10;99.90
39677;DHT22;27789;50.840;4.386;2022-12-20T09:16:15;12.10;99.90
39677;DHT22;27789;50.840;4.386;2022-12-20T09:18:42;12.10;99.90
39677;DHT22;27789;50.840;4.386;2022-12-20T09:21:08;12.10;99.90
39677;DHT22;27789;50.840;4.386;2022-12-20T09:23:35;12.20;99.90
39677;DHT22;27789;50.840;4.386;2022-12-20T09:26:06;12.20;99.90
39677;DHT22;27789;50.840;4.386;2022-12-20T09:28:33;12.20;99.90
39677;DHT22;27789;50.840;4.386;2022-12-20T09:31:04;12.20;99.90
39677;DHT22;27789;50.840;4.386;2022-12-20T09:33:31;12.20;99.90
39677;DHT22;27789;50.840;4.386;2022-12-20T09:35:58;12.20;99.90
39677;DHT22;27789;50.840;4.386;2022-12-20T09:38:24;12.20;99.90
39677;DHT22;27789;50.840;4.386;2022-12-20T09:40:52;12.20;99.90
39677;DHT22;27789;50.840;4.386;2022-12-20T09:43:20;12.20;99.90
39677;DHT22;27789;50.840;4.386;2022-12-20T09:45:49;12.10;99.90
39677;DHT22;27789;50.840;4.386;2022-12-20T09:48:19;12.10;99.90
39677;DHT22;27789;50.840;4.386;2022-12-20T09:54:12;12.20;99.90
39677;DHT22;27789;50.840;4.386;2022-12-20T09:56:36;12.10;99.90
39677;DHT22;27789;50.840;4.386;2022-12-20T09:59:07;12.10;99.90
39677;DHT22;27789;50.840;4.386;2022-12-20T10:01:35;12.00;99.90
39677;DHT22;27789;50.840;4.386;2022-12-20T10:04:04;11.90;99.90
39677;DHT22;27789;50.840;4.386;2022-12-20T10:09:17;11.90;99.90
39677;DHT22;27789;50.840;4.386;2022-12-20T10:14:34;11.90;99.90
39677;DHT22;27789;50.840;4.386;2022-12-20T10:20:05;11.90;99.90
39677;DHT22;27789;50.840;4.386;2022-12-20T10:22:49;11.80;99.90
39677;DHT22;27789;50.840;4.386;2022-12-20T10:25:22;11.80;99.90
39677;DHT22;27789;50.840;4.386;2022-12-20T10:27:51;11.80;99.90
39677;DHT22;27789;50.840;4.386;2022-12-20T10:30:21;11.80;99.90
39677;DHT22;27789;50.840;4.386;2022-12-20T10:32:49;11.80;99.90
39677;DHT22;27789;50.840;4.386;2022-12-20T10:35:27;11.80;99.90
39677;DHT22;27789;50.840;4.386;2022-12-20T10:38:11;11.80;99.90
39677;DHT22;27789;50.840;4.386;2022-12-20T10:43:21;11.80;99.90
39677;DHT22;27789;50.840;4.386;2022-12-20T10:46:04;11.80;99.90
39677;DHT22;27789;50.840;4.386;2022-12-20T10:51:12;11.90;99.90
39677;DHT22;27789;50.840;4.386;2022-12-20T10:56:29;11.80;99.90
39677;DHT22;27789;50.840;4.386;2022-12-20T11:01:46;11.80;99.90
39677;DHT22;27789;50.840;4.386;2022-12-20T11:04:25;11.80;99.90
39677;DHT22;27789;50.840;4.386;2022-12-20T11:06:52;11.90;99.90
39677;DHT22;27789;50.840;4.386;2022-12-20T11:14:30;11.80;99.90
39677;DHT22;27789;50.840;4.386;2022-12-20T11:16:57;11.80;99.90
39677;DHT22;27789;50.840;4.386;2022-12-20T11:30:20;11.60;99.90
39677;DHT22;27789;50.840;4.386;2022-12-20T11:35:24;11.60;99.90
39677;DHT22;27789;50.840;4.386;2022-12-20T11:43:09;11.60;99.90
39677;DHT22;27789;50.840;4.386;2022-12-20T11:56:18;11.50;99.90
39677;DHT22;27789;50.840;4.386;2022-12-20T11:58:59;11.50;99.90
39677;DHT22;27789;50.840;4.386;2022-12-20T12:01:36;11.40;99.90
39677;DHT22;27789;50.840;4.386;2022-12-20T12:04:13;11.50;99.90
39677;DHT22;27789;50.840;4.386;2022-12-20T12:06:48;11.40;99.90
39677;DHT22;27789;50.840;4.386;2022-12-20T12:09:29;11.50;99.90
39677;DHT22;27789;50.840;4.386;2022-12-20T12:14:58;11.40;99.90
39677;DHT22;27789;50.840;4.386;2022-12-20T12:22:44;11.30;99.90
39677;DHT22;27789;50.840;4.386;2022-12-20T12:25:15;11.30;99.90
39677;DHT22;27789;50.840;4.386;2022-12-20T12:27:41;11.30;99.90
39677;DHT22;27789;50.840;4.386;2022-12-20T12:30:12;11.40;99.90
39677;DHT22;27789;50.840;4.386;2022-12-20T12:46:12;11.30;99.90
39677;DHT22;27789;50.840;4.386;2022-12-20T12:48:45;11.30;99.90
39677;DHT22;27789;50.840;4.386;2022-12-20T12:51:14;11.30;99.90
39677;DHT22;27789;50.840;4.386;2022-12-20T12:53:52;11.30;99.90
39677;DHT22;27789;50.840;4.386;2022-12-20T12:56:30;11.30;99.90
39677;DHT22;27789;50.840;4.386;2022-12-20T13:01:52;11.30;99.90
39677;DHT22;27789;50.840;4.386;2022-12-20T13:11:53;11.30;99.90
39677;DHT22;27789;50.840;4.386;2022-12-20T13:19:51;11.30;99.90
39677;DHT22;27789;50.840;4.386;2022-12-20T13:22:22;11.30;99.90
39677;DHT22;27789;50.840;4.386;2022-12-20T13:29:59;11.30;99.90
39677;DHT22;27789;50.840;4.386;2022-12-20T13:40:48;11.30;99.90
39677;DHT22;27789;50.840;4.386;2022-12-20T13:46:00;11.30;99.90
39677;DHT22;27789;50.840;4.386;2022-12-20T13:51:08;11.40;99.90
39677;DHT22;27789;50.840;4.386;2022-12-20T13:53:34;11.40;99.90
39677;DHT22;27789;50.840;4.386;2022-12-20T13:56:30;11.40;99.90
39677;DHT22;27789;50.840;4.386;2022-12-20T13:59:02;11.40;99.90
39677;DHT22;27789;50.840;4.386;2022-12-20T14:01:29;11.40;99.90
39677;DHT22;27789;50.840;4.386;2022-12-20T14:04:01;11.40;99.90
39677;DHT22;27789;50.840;4.386;2022-12-20T14:06:29;11.50;99.90
39677;DHT22;27789;50.840;4.386;2022-12-20T14:08:54;11.50;99.90
39677;DHT22;27789;50.840;4.386;2022-12-20T14:11:22;11.50;99.90
39677;DHT22;27789;50.840;4.386;2022-12-20T14:14:02;11.40;99.90
39677;DHT22;27789;50.840;4.386;2022-12-20T14:16:30;11.50;99.90
39677;DHT22;27789;50.840;4.386;2022-12-20T14:21:22;11.50;99.90
39677;DHT22;27789;50.840;4.386;2022-12-20T14:23:50;11.50;99.90
39677;DHT22;27789;50.840;4.386;2022-12-20T14:29:21;11.60;99.90
39677;DHT22;27789;50.840;4.386;2022-12-20T14:31:49;11.50;99.90
39677;DHT22;27789;50.840;4.386;2022-12-20T14:34:20;11.50;99.90
39677;DHT22;27789;50.840;4.386;2022-12-20T14:36:49;11.50;99.90
39677;DHT22;27789;50.840;4.386;2022-12-20T14:39:29;11.50;99.90
39677;DHT22;27789;50.840;4.386;2022-12-20T14:44:26;11.40;99.90
39677;DHT22;27789;50.840;4.386;2022-12-20T14:46:54;11.40;99.90
39677;DHT22;27789;50.840;4.386;2022-12-20T14:49:34;11.40;99.90
39677;DHT22;27789;50.840;4.386;2022-12-20T15:10:36;11.40;99.90
39677;DHT22;27789;50.840;4.386;2022-12-20T15:13:01;11.30;99.90
39677;DHT22;27789;50.840;4.386;2022-12-20T15:15:27;11.40;99.90
39677;DHT22;27789;50.840;4.386;2022-12-20T15:17:52;11.40;99.90
39677;DHT22;27789;50.840;4.386;2022-12-20T15:20:18;11.40;99.90
39677;DHT22;27789;50.840;4.386;2022-12-20T15:22:44;11.30;99.90
39677;DHT22;27789;50.840;4.386;2022-12-20T15:25:16;11.40;99.90
39677;DHT22;27789;50.840;4.386;2022-12-20T15:27:43;11.30;99.90
39677;DHT22;27789;50.840;4.386;2022-12-20T15:30:11;11.30;99.90
39677;DHT22;27789;50.840;4.386;2022-12-20T15:32:41;11.30;99.90
39677;DHT22;27789;50.840;4.386;2022-12-20T15:35:13;11.30;99.90
39677;DHT22;27789;50.840;4.386;2022-12-20T15:37:39;11.30;99.90
39677;DHT22;27789;50.840;4.386;2022-12-20T15:40:05;11.30;99.90
39677;DHT22;27789;50.840;4.386;2022-12-20T15:42:31;11.30;99.90
39677;DHT22;27789;50.840;4.386;2022-12-20T15:44:56;11.30;99.90
39677;DHT22;27789;50.840;4.386;2022-12-20T15:47:22;11.30;99.90
39677;DHT22;27789;50.840;4.386;2022-12-20T15:49:48;11.40;99.90
39677;DHT22;27789;50.840;4.386;2022-12-20T15:52:18;11.40;99.90
39677;DHT22;27789;50.840;4.386;2022-12-20T15:54:45;11.30;99.90
39677;DHT22;27789;50.840;4.386;2022-12-20T15:57:12;11.30;99.90
39677;DHT22;27789;50.840;4.386;2022-12-20T15:59:38;11.30;99.90
39677;DHT22;27789;50.840;4.386;2022-12-20T16:04:41;11.30;99.90
39677;DHT22;27789;50.840;4.386;2022-12-20T16:07:09;11.30;99.90
39677;DHT22;27789;50.840;4.386;2022-12-20T16:09:36;11.20;99.90
39677;DHT22;27789;50.840;4.386;2022-12-20T16:12:01;11.30;99.90
39677;DHT22;27789;50.840;4.386;2022-12-20T16:14:27;11.20;99.90
39677;DHT22;27789;50.840;4.386;2022-12-20T16:16:53;11.20;99.90
39677;DHT22;27789;50.840;4.386;2022-12-20T16:19:19;11.20;99.90
39677;DHT22;27789;50.840;4.386;2022-12-20T16:21:51;11.20;99.90
39677;DHT22;27789;50.840;4.386;2022-12-20T16:24:17;11.20;99.90
39677;DHT22;27789;50.840;4.386;2022-12-20T16:26:43;11.30;99.90
39677;DHT22;27789;50.840;4.386;2022-12-20T16:29:10;11.20;99.90
39677;DHT22;27789;50.840;4.386;2022-12-20T16:31:37;11.20;99.90
39677;DHT22;27789;50.840;4.386;2022-12-20T16:34:05;11.20;99.90
39677;DHT22;27789;50.840;4.386;2022-12-20T16:36:32;11.10;99.90
39677;DHT22;27789;50.840;4.386;2022-12-20T16:38:57;11.20;99.90
39677;DHT22;27789;50.840;4.386;2022-12-20T16:41:26;11.20;99.90
39677;DHT22;27789;50.840;4.386;2022-12-20T16:43:53;11.20;99.90
39677;DHT22;27789;50.840;4.386;2022-12-20T16:46:22;11.30;99.90
39677;DHT22;27789;50.840;4.386;2022-12-20T16:48:49;11.30;99.90
39677;DHT22;27789;50.840;4.386;2022-12-20T16:51:29;11.30;99.90
39677;DHT22;27789;50.840;4.386;2022-12-20T16:53:58;11.30;99.90
39677;DHT22;27789;50.840;4.386;2022-12-20T16:56:25;11.30;99.90
39677;DHT22;27789;50.840;4.386;2022-12-20T16:58:50;11.20;99.90
39677;DHT22;27789;50.840;4.386;2022-12-20T17:01:22;11.20;99.90
39677;DHT22;27789;50.840;4.386;2022-12-20T17:03:49;11.30;99.90
39677;DHT22;27789;50.840;4.386;2022-12-20T17:06:15;11.90;99.90
39677;DHT22;27789;50.840;4.386;2022-12-20T17:08:42;11.20;99.90
39677;DHT22;27789;50.840;4.386;2022-12-20T17:11:34;11.30;99.90
39677;DHT22;27789;50.840;4.386;2022-12-20T17:14:00;11.20;99.90
39677;DHT22;27789;50.840;4.386;2022-12-20T17:16:26;11.20;99.90
39677;DHT22;27789;50.840;4.386;2022-12-20T17:18:53;11.20;99.90
39677;DHT22;27789;50.840;4.386;2022-12-20T17:23:58;11.10;99.90
39677;DHT22;27789;50.840;4.386;2022-12-20T17:26:26;11.20;99.90
39677;DHT22;27789;50.840;4.386;2022-12-20T17:28:53;11.20;99.90
39677;DHT22;27789;50.840;4.386;2022-12-20T17:34:19;11.20;99.90
39677;DHT22;27789;50.840;4.386;2022-12-20T17:36:46;11.30;99.90
39677;DHT22;27789;50.840;4.386;2022-12-20T17:39:12;11.30;99.90
39677;DHT22;27789;50.840;4.386;2022-12-20T17:41:38;11.20;99.90
39677;DHT22;27789;50.840;4.386;2022-12-20T17:44:04;11.20;99.90
39677;DHT22;27789;50.840;4.386;2022-12-20T17:46:31;11.20;99.90
39677;DHT22;27789;50.840;4.386;2022-12-20T17:48:57;11.30;99.90
39677;DHT22;27789;50.840;4.386;2022-12-20T17:51:28;11.20;99.90
39677;DHT22;27789;50.840;4.386;2022-12-20T17:53:56;11.30;99.90
39677;DHT22;27789;50.840;4.386;2022-12-20T17:56:25;11.30;99.90
39677;DHT22;27789;50.840;4.386;2022-12-20T17:58:52;11.30;99.90
39677;DHT22;27789;50.840;4.386;2022-12-20T18:01:20;11.30;99.90
39677;DHT22;27789;50.840;4.386;2022-12-20T18:03:47;11.30;99.90
39677;DHT22;27789;50.840;4.386;2022-12-20T18:06:13;11.30;99.90
39677;DHT22;27789;50.840;4.386;2022-12-20T18:08:38;11.40;99.90
39677;DHT22;27789;50.840;4.386;2022-12-20T18:11:06;11.30;99.90
39677;DHT22;27789;50.840;4.386;2022-12-20T18:13:32;11.30;99.90
39677;DHT22;27789;50.840;4.386;2022-12-20T18:15:57;11.30;99.90
39677;DHT22;27789;50.840;4.386;2022-12-20T18:18:23;11.30;99.90
39677;DHT22;27789;50.840;4.386;2022-12-20T18:20:48;11.30;99.90
39677;DHT22;27789;50.840;4.386;2022-12-20T18:23:14;11.40;99.90